createdAt,value
2018-12-05T00:00:16.039Z,13.05
2018-12-05T00:02:42.500Z,11.80
2018-12-05T00:05:08.881Z,14.83
2018-12-05T00:07:35.251Z,14.50
2018-12-05T00:10:01.659Z,13.68
2018-12-05T00:12:28.032Z,10.55
2018-12-05T00:14:54.395Z,11.20
2018-12-05T00:17:20.767Z,13.60
2018-12-05T00:19:47.157Z,13.75
2018-12-05T00:22:13.502Z,12.10
2018-12-05T00:24:39.886Z,13.88
2018-12-05T00:27:06.252Z,13.53
2018-12-05T00:29:32.701Z,10.23
2018-12-05T00:31:59.136Z,11.28
2018-12-05T00:34:25.510Z,11.03
2018-12-05T00:36:51.881Z,13.32
2018-12-05T00:39:18.371Z,13.28
2018-12-05T00:41:44.844Z,11.90
2018-12-05T00:44:11.203Z,12.58
2018-12-05T00:46:37.687Z,10.85
2018-12-05T00:49:04.062Z,10.85
2018-12-05T00:51:30.441Z,12.70
2018-12-05T00:53:56.824Z,12.05
2018-12-05T00:56:23.206Z,12.25
2018-12-05T00:58:49.553Z,12.05
2018-12-05T01:01:15.995Z,11.53
2018-12-05T01:03:42.444Z,13.90
2018-12-05T01:06:08.831Z,11.93
2018-12-05T01:08:35.179Z,14.10
2018-12-05T01:11:01.544Z,11.97
2018-12-05T01:13:27.907Z,11.15
2018-12-05T01:15:54.299Z,11.60
2018-12-05T01:18:20.663Z,9.85
2018-12-05T01:20:47.042Z,13.40
2018-12-05T01:23:13.420Z,15.05
2018-12-05T01:25:39.753Z,14.68
2018-12-05T01:28:06.118Z,16.15
2018-12-05T01:30:32.482Z,14.05
2018-12-05T01:32:58.851Z,13.28
2018-12-05T01:35:25.751Z,15.23
2018-12-05T01:37:52.159Z,13.90
2018-12-05T01:40:18.537Z,13.83
2018-12-05T01:42:44.927Z,14.58
2018-12-05T01:45:11.309Z,14.90
2018-12-05T01:47:37.803Z,14.28
2018-12-05T01:50:11.882Z,12.03
2018-12-05T01:52:38.267Z,14.58
2018-12-05T01:55:04.772Z,13.43
2018-12-05T01:57:31.152Z,14.53
2018-12-05T02:00:05.683Z,13.58
2018-12-05T02:02:32.070Z,14.18
2018-12-05T02:04:58.432Z,11.93
2018-12-05T02:07:24.820Z,12.20
2018-12-05T02:09:51.200Z,14.25
2018-12-05T02:12:17.590Z,15.03
2018-12-05T02:14:43.944Z,12.20
2018-12-05T02:17:10.442Z,12.88
2018-12-05T02:19:36.943Z,13.20
2018-12-05T02:22:03.452Z,12.68
2018-12-05T02:24:29.830Z,12.80
2018-12-05T02:26:56.286Z,13.72
2018-12-05T02:29:24.915Z,13.40
2018-12-05T02:31:51.394Z,11.95
2018-12-05T02:34:17.790Z,15.23
2018-12-05T02:36:44.173Z,13.25
2018-12-05T02:39:10.548Z,13.85
2018-12-05T02:41:36.915Z,14.63
2018-12-05T02:44:03.404Z,14.07
2018-12-05T02:46:29.764Z,15.20
2018-12-05T02:48:56.162Z,14.00
2018-12-05T02:51:22.552Z,13.60
2018-12-05T02:53:56.083Z,12.78
2018-12-05T02:56:22.433Z,15.05
2018-12-05T02:58:48.811Z,14.00
2018-12-05T03:01:15.158Z,12.33
2018-12-05T03:03:41.535Z,15.10
2018-12-05T03:06:07.888Z,14.68
2018-12-05T03:08:41.220Z,10.38
2018-12-05T03:11:07.657Z,12.98
2018-12-05T03:13:34.015Z,11.97
2018-12-05T03:16:00.359Z,11.93
2018-12-05T03:18:33.611Z,12.05
2018-12-05T03:20:59.967Z,12.43
2018-12-05T03:23:26.447Z,12.73
2018-12-05T03:25:52.808Z,12.60
2018-12-05T03:28:19.181Z,13.35
2018-12-05T03:30:45.551Z,13.53
2018-12-05T03:33:11.989Z,13.03
2018-12-05T03:35:38.466Z,14.40
2018-12-05T03:38:05.361Z,13.88
2018-12-05T03:40:31.750Z,14.25
2018-12-05T03:42:58.253Z,14.30
2018-12-05T03:45:24.653Z,12.85
2018-12-05T03:47:51.019Z,15.35
2018-12-05T03:50:17.421Z,15.05
2018-12-05T03:52:43.892Z,15.60
2018-12-05T03:55:10.291Z,15.03
2018-12-05T03:57:36.647Z,14.40
2018-12-05T04:00:03.671Z,14.35
2018-12-05T04:02:30.031Z,13.90
2018-12-05T04:04:56.387Z,13.93
2018-12-05T04:07:22.744Z,13.88
2018-12-05T04:09:49.273Z,13.45
2018-12-05T04:12:15.841Z,13.78
2018-12-05T04:14:42.222Z,12.25
2018-12-05T04:17:08.660Z,13.35
2018-12-05T04:19:35.094Z,16.27
2018-12-05T04:22:01.439Z,16.27
2018-12-05T04:24:27.827Z,16.10
2018-12-05T04:26:54.186Z,12.53
2018-12-05T04:29:20.659Z,15.90
2018-12-05T04:31:46.991Z,13.53
2018-12-05T04:34:13.367Z,12.98
2018-12-05T04:36:39.714Z,13.32
2018-12-05T04:39:13.067Z,12.43
2018-12-05T04:41:39.543Z,13.68
2018-12-05T04:44:05.913Z,13.05
2018-12-05T04:46:32.280Z,13.18
2018-12-05T04:48:58.685Z,12.47
2018-12-05T04:51:25.096Z,12.98
2018-12-05T04:53:51.469Z,12.05
2018-12-05T04:56:17.854Z,11.63
2018-12-05T04:58:44.213Z,10.43
2018-12-05T05:01:10.596Z,10.55
2018-12-05T05:03:36.935Z,11.73
2018-12-05T05:06:03.345Z,11.80
2018-12-05T05:08:29.700Z,10.15
2018-12-05T05:10:56.061Z,12.55
2018-12-05T05:13:22.411Z,11.55
2018-12-05T05:15:48.785Z,11.70
2018-12-05T05:18:15.132Z,12.00
2018-12-05T05:20:41.507Z,10.95
2018-12-05T05:23:07.851Z,10.48
2018-12-05T05:25:34.233Z,10.25
2018-12-05T05:28:00.588Z,11.38
2018-12-05T05:30:26.963Z,9.70
2018-12-05T05:32:53.330Z,12.15
2018-12-05T05:35:20.036Z,10.90
2018-12-05T05:37:46.399Z,10.45
2018-12-05T05:40:12.781Z,11.00
2018-12-05T05:42:39.150Z,10.13
2018-12-05T05:45:05.723Z,10.23
2018-12-05T05:47:32.095Z,11.25
2018-12-05T05:49:58.495Z,10.25
2018-12-05T05:52:24.957Z,10.30
2018-12-05T05:54:51.299Z,10.30
2018-12-05T05:57:17.687Z,11.12
2018-12-05T05:59:44.035Z,11.53
2018-12-05T06:02:10.423Z,12.65
2018-12-05T06:04:36.767Z,10.63
2018-12-05T06:07:03.173Z,11.55
2018-12-05T06:09:29.523Z,11.75
2018-12-05T06:11:55.895Z,10.40
2018-12-05T06:14:22.246Z,11.55
2018-12-05T06:16:48.611Z,11.83
2018-12-05T06:19:14.967Z,10.38
2018-12-05T06:21:41.369Z,10.32
2018-12-05T06:24:07.730Z,11.57
2018-12-05T06:26:34.112Z,14.47
2018-12-05T06:29:00.463Z,12.70
2018-12-05T06:31:26.826Z,10.60
2018-12-05T06:33:53.177Z,9.25
2018-12-05T06:36:19.556Z,9.90
2018-12-05T06:38:45.907Z,14.25
2018-12-05T06:41:12.344Z,16.73
2018-12-05T06:43:38.843Z,16.20
2018-12-05T06:46:05.196Z,13.38
2018-12-05T06:48:31.557Z,12.93
2018-12-05T06:50:57.940Z,12.23
2018-12-05T06:53:24.303Z,10.95
2018-12-05T06:55:50.653Z,10.98
2018-12-05T06:58:17.027Z,11.00
2018-12-05T07:00:43.384Z,10.65
2018-12-05T07:03:09.761Z,10.23
2018-12-05T07:05:36.215Z,10.82
2018-12-05T07:08:02.632Z,11.33
2018-12-05T07:10:28.987Z,9.48
2018-12-05T07:12:55.355Z,12.20
2018-12-05T07:15:21.753Z,9.80
2018-12-05T07:17:48.139Z,11.83
2018-12-05T07:20:14.491Z,13.43
2018-12-05T07:22:40.898Z,10.90
2018-12-05T07:25:07.286Z,12.30
2018-12-05T07:27:33.697Z,11.15
2018-12-05T07:30:00.097Z,10.18
2018-12-05T07:32:26.500Z,11.60
2018-12-05T07:34:52.859Z,10.20
2018-12-05T07:37:19.318Z,10.95
2018-12-05T07:39:45.687Z,11.48
2018-12-05T07:42:12.034Z,11.20
2018-12-05T07:44:38.400Z,13.75
2018-12-05T07:47:04.876Z,12.75
2018-12-05T07:49:31.243Z,10.13
2018-12-05T07:51:57.611Z,8.28
2018-12-05T07:54:23.983Z,10.35
2018-12-05T07:56:50.327Z,10.65
2018-12-05T07:59:16.695Z,10.90
2018-12-05T08:01:43.147Z,11.68
2018-12-05T08:04:09.544Z,10.48
2018-12-05T08:06:35.914Z,10.53
2018-12-05T08:09:04.534Z,9.73
2018-12-05T08:11:31.106Z,8.08
2018-12-05T08:13:57.520Z,8.78
2018-12-05T08:16:23.888Z,10.10
2018-12-05T08:18:50.271Z,10.30
2018-12-05T08:21:16.623Z,10.13
2018-12-05T08:23:43.114Z,9.63
2018-12-05T08:26:09.595Z,8.20
2018-12-05T08:28:35.995Z,9.25
2018-12-05T08:31:02.525Z,8.30
2018-12-05T08:33:28.878Z,9.65
2018-12-05T08:35:55.272Z,8.35
2018-12-05T08:38:21.651Z,8.88
2018-12-05T08:40:48.059Z,10.80
2018-12-05T08:43:14.409Z,8.75
2018-12-05T08:45:40.936Z,7.85
2018-12-05T08:48:07.415Z,8.25
2018-12-05T08:50:33.837Z,8.30
2018-12-05T08:53:00.197Z,8.03
2018-12-05T08:55:26.570Z,7.78
2018-12-05T08:57:52.941Z,9.03
2018-12-05T09:00:19.347Z,7.72
2018-12-05T09:02:45.710Z,9.18
2018-12-05T09:05:12.091Z,8.68
2018-12-05T09:07:38.424Z,9.48
2018-12-05T09:10:05.051Z,9.93
2018-12-05T09:12:31.455Z,8.45
2018-12-05T09:14:57.830Z,8.70
2018-12-05T09:17:24.316Z,8.23
2018-12-05T09:19:50.659Z,8.78
2018-12-05T09:22:17.032Z,8.50
2018-12-05T09:24:43.395Z,9.23
2018-12-05T09:27:09.788Z,8.10
2018-12-05T09:29:36.259Z,9.73
2018-12-05T09:32:03.372Z,8.70
2018-12-05T09:34:29.732Z,10.98
2018-12-05T09:36:56.123Z,9.03
2018-12-05T09:39:22.484Z,8.55
2018-12-05T09:41:48.963Z,10.10
2018-12-05T09:44:15.355Z,9.10
2018-12-05T09:46:41.755Z,12.40
2018-12-05T09:49:08.125Z,11.22
2018-12-05T09:51:34.656Z,9.38
2018-12-05T09:54:01.163Z,9.50
2018-12-05T09:56:27.596Z,9.93
2018-12-05T09:58:53.976Z,10.82
2018-12-05T10:01:20.364Z,9.88
2018-12-05T10:03:46.792Z,10.10
2018-12-05T10:06:13.219Z,10.18
2018-12-05T10:08:39.615Z,10.32
2018-12-05T10:11:06.011Z,11.12
2018-12-05T10:13:32.408Z,12.23
2018-12-05T10:15:58.871Z,13.45
2018-12-05T10:18:25.268Z,9.75
2018-12-05T10:20:55.952Z,12.35
2018-12-05T10:23:20.032Z,10.05
2018-12-05T10:25:46.390Z,13.38
2018-12-05T10:28:12.796Z,11.85
2018-12-05T10:30:39.164Z,11.25
2018-12-05T10:33:05.552Z,14.87
2018-12-05T10:35:31.962Z,10.85
2018-12-05T10:37:58.327Z,11.97
2018-12-05T10:40:24.786Z,12.20
2018-12-05T10:42:51.315Z,10.82
2018-12-05T10:45:17.714Z,12.73
2018-12-05T10:47:44.085Z,16.80
2018-12-05T10:50:10.608Z,11.00
2018-12-05T10:52:36.989Z,10.10
2018-12-05T10:55:03.777Z,11.48
2018-12-05T10:57:30.148Z,10.03
2018-12-05T10:59:56.544Z,11.60
2018-12-05T11:02:28.928Z,10.38
2018-12-05T11:05:01.384Z,11.90
2018-12-05T11:07:33.734Z,11.35
2018-12-05T11:10:06.063Z,11.48
2018-12-05T11:12:38.419Z,11.33
2018-12-05T11:15:11.361Z,10.15
2018-12-05T11:17:42.701Z,13.65
2018-12-05T11:20:15.272Z,12.05
2018-12-05T11:22:47.989Z,11.68
2018-12-05T11:25:16.418Z,9.90
2018-12-05T11:27:42.785Z,11.38
2018-12-05T11:30:09.503Z,10.78
2018-12-05T11:32:36.113Z,11.53
2018-12-05T11:35:02.868Z,12.65
2018-12-05T11:37:29.242Z,10.08
2018-12-05T11:39:55.655Z,12.15
2018-12-05T11:42:22.124Z,14.20
2018-12-05T11:44:48.513Z,11.75
2018-12-05T11:47:14.896Z,13.95
2018-12-05T11:49:41.304Z,13.30
2018-12-05T11:52:07.687Z,19.52
2018-12-05T11:54:34.082Z,14.53
2018-12-05T11:57:00.467Z,12.60
2018-12-05T11:59:26.926Z,11.28
2018-12-05T12:01:53.375Z,10.10
2018-12-05T12:04:19.857Z,12.00
2018-12-05T12:06:46.246Z,11.15
2018-12-05T12:09:12.637Z,11.43
2018-12-05T12:11:39.033Z,14.35
2018-12-05T12:14:05.643Z,9.20
2018-12-05T12:16:32.159Z,9.93
2018-12-05T12:18:58.568Z,13.70
2018-12-05T12:21:24.947Z,10.23
2018-12-05T12:23:53.149Z,11.15
2018-12-05T12:26:19.699Z,12.03
2018-12-05T12:28:46.084Z,11.80
2018-12-05T12:31:12.482Z,11.53
2018-12-05T12:33:38.856Z,12.43
2018-12-05T12:36:05.336Z,11.20
2018-12-05T12:38:31.744Z,11.38
2018-12-05T12:40:58.129Z,10.65
2018-12-05T12:43:24.608Z,13.28
2018-12-05T12:45:51.104Z,11.28
2018-12-05T12:48:17.485Z,10.70
2018-12-05T12:50:43.948Z,10.60
2018-12-05T12:53:10.415Z,10.80
2018-12-05T12:55:36.876Z,9.93
2018-12-05T12:58:03.311Z,9.65
2018-12-05T13:00:29.671Z,11.38
2018-12-05T13:02:56.087Z,10.65
2018-12-05T13:05:22.491Z,10.48
2018-12-05T13:07:48.920Z,10.43
2018-12-05T13:10:15.299Z,11.60
2018-12-05T13:12:41.733Z,11.25
2018-12-05T13:15:08.118Z,11.08
2018-12-05T13:17:34.498Z,12.58
2018-12-05T13:20:00.864Z,13.58
2018-12-05T13:22:27.257Z,14.65
2018-12-05T13:24:53.631Z,10.58
2018-12-05T13:27:20.004Z,11.45
2018-12-05T13:29:46.373Z,13.80
2018-12-05T13:32:13.099Z,13.53
2018-12-05T13:34:39.480Z,12.13
2018-12-05T13:37:05.863Z,10.98
2018-12-05T13:39:32.449Z,11.68
2018-12-05T13:41:58.939Z,10.72
2018-12-05T13:44:25.549Z,12.03
2018-12-05T13:46:51.950Z,10.78
2018-12-05T13:49:18.339Z,13.62
2018-12-05T13:51:44.707Z,13.05
2018-12-05T13:54:11.083Z,15.23
2018-12-05T13:56:37.620Z,13.65
2018-12-05T13:59:04.119Z,13.95
2018-12-05T14:01:30.671Z,13.30
2018-12-05T14:03:57.104Z,13.88
2018-12-05T14:06:23.453Z,10.30
2018-12-05T14:08:49.835Z,14.05
2018-12-05T14:11:16.312Z,12.30
2018-12-05T14:13:42.679Z,14.55
2018-12-05T14:16:09.171Z,13.05
2018-12-05T14:18:35.580Z,10.13
2018-12-05T14:21:01.942Z,11.60
2018-12-05T14:23:28.287Z,10.40
2018-12-05T14:25:54.689Z,12.98
2018-12-05T14:28:21.047Z,13.13
2018-12-05T14:30:47.415Z,11.18
2018-12-05T14:33:13.808Z,13.40
2018-12-05T14:35:40.363Z,11.12
2018-12-05T14:38:06.785Z,12.45
2018-12-05T14:40:33.259Z,12.95
2018-12-05T14:42:59.645Z,11.50
2018-12-05T14:45:26.011Z,12.45
2018-12-05T14:47:52.376Z,11.75
2018-12-05T14:50:19.011Z,11.68
2018-12-05T14:52:45.409Z,13.45
2018-12-05T14:55:11.910Z,11.73
2018-12-05T14:57:38.283Z,10.05
2018-12-05T15:00:07.021Z,12.90
2018-12-05T15:02:33.395Z,12.23
2018-12-05T15:04:59.885Z,12.75
2018-12-05T15:07:26.251Z,11.88
2018-12-05T15:09:52.694Z,11.70
2018-12-05T15:12:19.084Z,10.70
2018-12-05T15:14:45.469Z,15.28
2018-12-05T15:17:11.819Z,11.95
2018-12-05T15:19:38.217Z,12.80
2018-12-05T15:22:04.649Z,13.60
2018-12-05T15:24:31.138Z,13.55
2018-12-05T15:26:57.614Z,15.80
2018-12-05T15:29:25.675Z,15.10
2018-12-05T15:31:52.408Z,14.03
2018-12-05T15:34:18.981Z,15.48
2018-12-05T15:36:45.427Z,12.55
2018-12-05T15:39:11.795Z,12.90
2018-12-05T15:41:38.179Z,14.73
2018-12-05T15:44:04.745Z,14.20
2018-12-05T15:46:31.280Z,14.58
2018-12-05T15:48:57.683Z,12.95
2018-12-05T15:51:24.093Z,12.93
2018-12-05T15:53:50.534Z,13.38
2018-12-05T15:56:17.121Z,12.55
2018-12-05T15:58:43.519Z,13.45
2018-12-05T16:01:09.874Z,12.95
2018-12-05T16:03:42.942Z,12.75
2018-12-05T16:06:04.770Z,13.58
2018-12-05T16:08:31.140Z,13.35
2018-12-05T16:10:57.540Z,12.37
2018-12-05T16:13:23.911Z,13.95
2018-12-05T16:15:50.283Z,14.95
2018-12-05T16:18:16.668Z,15.32
2018-12-05T16:20:43.050Z,14.10
2018-12-05T16:23:09.500Z,14.15
2018-12-05T16:25:35.883Z,12.20
2018-12-05T16:28:02.331Z,13.75
2018-12-05T16:30:29.259Z,13.45
2018-12-05T16:32:55.614Z,12.98
2018-12-05T16:35:21.976Z,13.18
2018-12-05T16:37:48.354Z,13.38
2018-12-05T16:40:14.727Z,13.20
2018-12-05T16:42:41.099Z,13.98
2018-12-05T16:45:07.622Z,14.93
2018-12-05T16:47:33.997Z,13.13
2018-12-05T16:50:00.367Z,12.95
2018-12-05T16:52:26.758Z,13.10
2018-12-05T16:54:53.804Z,16.00
2018-12-05T16:57:20.366Z,15.78
2018-12-05T16:59:46.879Z,14.83
2018-12-05T17:02:13.287Z,14.35
2018-12-05T17:04:39.655Z,14.53
2018-12-05T17:07:06.678Z,15.50
2018-12-05T17:09:33.288Z,15.05
2018-12-05T17:11:59.853Z,14.20
2018-12-05T17:14:27.099Z,14.98
2018-12-05T17:16:53.654Z,14.90
2018-12-05T17:19:20.086Z,16.32
2018-12-05T17:21:46.464Z,14.90
2018-12-05T17:24:12.851Z,15.58
2018-12-05T17:26:39.346Z,17.30
2018-12-05T17:29:05.812Z,16.02
2018-12-05T17:31:32.151Z,14.35
2018-12-05T17:33:58.640Z,14.47
2018-12-05T17:36:25.001Z,16.07
2018-12-05T17:38:51.383Z,14.25
2018-12-05T17:41:17.730Z,17.37
2018-12-05T17:43:44.127Z,14.13
2018-12-05T17:46:10.515Z,15.25
2018-12-05T17:48:36.850Z,15.85
2018-12-05T17:51:03.328Z,15.90
2018-12-05T17:53:30.916Z,16.67
2018-12-05T17:55:57.426Z,14.53
2018-12-05T17:58:23.782Z,14.58
2018-12-05T18:00:50.195Z,13.85
2018-12-05T18:03:16.630Z,14.47
2018-12-05T18:05:43.217Z,14.25
2018-12-05T18:08:09.711Z,13.18
2018-12-05T18:10:36.186Z,13.45
2018-12-05T18:13:02.575Z,14.83
2018-12-05T18:15:29.006Z,13.05
2018-12-05T18:17:55.396Z,14.65
2018-12-05T18:20:21.894Z,13.32
2018-12-05T18:22:48.291Z,12.00
2018-12-05T18:25:14.689Z,14.55
2018-12-05T18:27:41.095Z,14.65
2018-12-05T18:30:07.725Z,13.13
2018-12-05T18:32:34.146Z,13.78
2018-12-05T18:35:00.512Z,13.05
2018-12-05T18:37:26.933Z,13.13
2018-12-05T18:39:53.309Z,14.10
2018-12-05T18:42:19.822Z,14.38
2018-12-05T18:44:46.309Z,14.30
2018-12-05T18:47:12.803Z,13.50
2018-12-05T18:49:39.226Z,12.98
2018-12-05T18:52:05.771Z,13.50
2018-12-05T18:54:32.191Z,14.75
2018-12-05T18:56:58.603Z,13.58
2018-12-05T18:59:24.988Z,12.75
2018-12-05T19:01:51.437Z,12.78
2018-12-05T19:04:17.839Z,12.70
2018-12-05T19:06:44.207Z,12.37
2018-12-05T19:09:10.763Z,12.78
2018-12-05T19:11:37.486Z,11.33
2018-12-05T19:14:09.974Z,11.68
2018-12-05T19:16:36.369Z,12.15
2018-12-05T19:19:02.904Z,12.28
2018-12-05T19:21:29.267Z,12.70
2018-12-05T19:23:55.679Z,12.20
2018-12-05T19:26:22.048Z,11.63
2018-12-05T19:28:48.516Z,13.70
2018-12-05T19:31:19.350Z,12.50
2018-12-05T19:33:43.428Z,13.40
2018-12-05T19:36:09.903Z,12.33
2018-12-05T19:38:36.397Z,12.82
2018-12-05T19:41:02.868Z,11.63
2018-12-05T19:43:29.227Z,12.82
2018-12-05T19:45:55.602Z,12.60
2018-12-05T19:48:21.977Z,11.40
2018-12-05T19:50:48.372Z,11.70
2018-12-05T19:53:14.763Z,11.25
2018-12-05T19:55:41.153Z,11.10
2018-12-05T19:58:07.527Z,13.35
2018-12-05T20:00:33.920Z,12.85
2018-12-05T20:03:00.386Z,12.53
2018-12-05T20:05:26.781Z,12.00
2018-12-05T20:07:53.160Z,11.80
2018-12-05T20:10:19.569Z,14.05
2018-12-05T20:12:45.968Z,12.50
2018-12-05T20:15:12.341Z,12.20
2018-12-05T20:17:38.814Z,11.10
2018-12-05T20:20:06.623Z,12.53
2018-12-05T20:22:33.624Z,13.50
2018-12-05T20:25:00.226Z,12.73
2018-12-05T20:27:26.603Z,11.93
2018-12-05T20:29:52.963Z,13.03
2018-12-05T20:32:19.349Z,12.30
2018-12-05T20:34:45.739Z,13.50
2018-12-05T20:37:12.113Z,12.25
2018-12-05T20:39:38.500Z,13.80
2018-12-05T20:42:05.011Z,12.82
2018-12-05T20:44:38.427Z,13.10
2018-12-05T20:47:04.805Z,13.00
2018-12-05T20:49:31.195Z,12.85
2018-12-05T20:51:57.581Z,12.35
2018-12-05T20:54:23.965Z,12.73
2018-12-05T20:56:50.356Z,12.23
2018-12-05T20:59:16.780Z,13.48
2018-12-05T21:01:43.306Z,12.50
2018-12-05T21:04:09.681Z,14.60
2018-12-05T21:06:36.079Z,12.03
2018-12-05T21:09:05.787Z,12.68
2018-12-05T21:11:32.177Z,12.88
2018-12-05T21:13:58.595Z,12.40
2018-12-05T21:16:25.103Z,12.98
2018-12-05T21:18:51.485Z,13.72
2018-12-05T21:21:17.867Z,13.32
2018-12-05T21:23:44.222Z,13.30
2018-12-05T21:26:10.602Z,14.45
2018-12-05T21:28:36.962Z,13.95
2018-12-05T21:31:03.483Z,13.48
2018-12-05T21:33:29.843Z,13.32
2018-12-05T21:36:34.352Z,12.82
2018-12-05T21:39:00.702Z,13.35
2018-12-05T21:41:27.112Z,12.88
2018-12-05T21:43:53.478Z,13.15
2018-12-05T21:46:19.865Z,13.62
2018-12-05T21:48:46.235Z,12.40
2018-12-05T21:51:19.862Z,14.25
2018-12-05T21:53:46.241Z,13.68
2018-12-05T21:56:12.619Z,13.70
2018-12-05T21:58:39.012Z,12.43
2018-12-05T22:01:05.376Z,12.88
2018-12-05T22:03:31.775Z,12.70
2018-12-05T22:05:58.156Z,13.13
2018-12-05T22:08:24.907Z,11.50
2018-12-05T22:10:51.275Z,12.10
2018-12-05T22:13:17.651Z,14.35
2018-12-05T22:15:44.010Z,14.13
2018-12-05T22:18:10.471Z,14.65
2018-12-05T22:20:36.872Z,13.45
2018-12-05T22:23:03.323Z,13.88
2018-12-05T22:25:29.675Z,12.68
2018-12-05T22:27:56.045Z,13.72
2018-12-05T22:30:22.547Z,11.97
2018-12-05T22:32:48.922Z,12.15
2018-12-05T22:35:15.416Z,14.33
2018-12-05T22:37:41.807Z,12.63
2018-12-05T22:40:08.436Z,14.28
2018-12-05T22:42:34.907Z,12.53
2018-12-05T22:45:01.574Z,12.85
2018-12-05T22:47:27.964Z,14.55
2018-12-05T22:49:54.372Z,13.60
2018-12-05T22:52:20.746Z,13.13
2018-12-05T22:54:47.110Z,14.60
2018-12-05T22:57:13.540Z,16.80
2018-12-05T22:59:40.462Z,16.80
2018-12-05T23:02:06.990Z,16.82
2018-12-05T23:04:33.398Z,16.05
2018-12-05T23:06:59.816Z,15.25
2018-12-05T23:09:26.192Z,15.58
2018-12-05T23:11:52.630Z,15.75
2018-12-05T23:14:19.026Z,17.37
2018-12-05T23:16:45.425Z,19.57
2018-12-05T23:19:12.049Z,15.88
2018-12-05T23:21:38.441Z,15.13
2018-12-05T23:24:04.844Z,18.90
2018-12-05T23:26:31.224Z,15.40
2018-12-05T23:28:57.627Z,15.38
2018-12-05T23:31:23.995Z,19.90
2018-12-05T23:33:50.379Z,15.55
2018-12-05T23:36:16.751Z,18.80
2018-12-05T23:38:43.516Z,18.02
2018-12-05T23:41:09.890Z,16.87
2018-12-05T23:43:36.303Z,16.35
2018-12-05T23:46:02.689Z,17.35
2018-12-05T23:48:29.092Z,14.95
2018-12-05T23:50:55.479Z,17.42
2018-12-05T23:53:21.850Z,16.12
2018-12-05T23:55:48.256Z,15.43
2018-12-05T23:58:14.625Z,16.67
